Time;durP1;ratioP1;P1;durP2;ratioP2;P2;SDS_P1;SDS_P2;PMS_P1;PMS_P2;Temp;Humidity;BMP_temperature;BMP_pressure;BME280_temperature;BME280_humidity;BME280_pressure;Samples;Min_cycle;Max_cycle;Signal;HPM_P1;HPM_P2
2022/07/06 00:02:22;;;;;;;;;;;20.30;41.50;;;;;;6246756;22;20521;-90
2022/07/06 00:04:47;;;;;;;;;;;20.30;41.60;;;;;;6221439;23;19912;-91
2022/07/06 00:07:15;;;;;;;;;;;20.20;41.50;;;;;;6223088;23;19908;-91
2022/07/06 00:09:48;;;;;;;;;;;20.10;41.50;;;;;;6216396;23;19912;-91
2022/07/06 00:12:13;;;;;;;;;;;20.00;41.40;;;;;;6215880;23;20347;-91
2022/07/06 00:14:39;;;;;;;;;;;19.90;41.50;;;;;;6215654;23;19908;-91
2022/07/06 00:17:04;;;;;;;;;;;19.80;41.50;;;;;;6216504;23;20303;-91
2022/07/06 00:19:30;;;;;;;;;;;19.70;41.60;;;;;;6215502;23;19908;-91
2022/07/06 00:21:55;;;;;;;;;;;19.60;41.60;;;;;;6215974;23;19986;-91
2022/07/06 00:24:21;;;;;;;;;;;19.50;41.60;;;;;;6189751;23;19912;-91
2022/07/06 00:26:46;;;;;;;;;;;19.40;41.70;;;;;;6218365;23;19939;-91
2022/07/06 00:29:12;;;;;;;;;;;19.30;41.90;;;;;;6217667;23;19908;-90
2022/07/06 00:31:37;;;;;;;;;;;19.20;41.80;;;;;;6216571;23;19931;-88
2022/07/06 00:34:03;;;;;;;;;;;19.10;41.90;;;;;;6190736;23;19968;-89
2022/07/06 00:36:28;;;;;;;;;;;19.10;42.00;;;;;;6190714;23;19904;-89
2022/07/06 00:38:53;;;;;;;;;;;18.90;42.10;;;;;;6215665;23;19908;-89
2022/07/06 00:41:19;;;;;;;;;;;18.80;42.30;;;;;;6240643;23;19942;-90
2022/07/06 00:43:49;;;;;;;;;;;18.70;42.30;;;;;;6246500;23;19919;-90
2022/07/06 00:46:14;;;;;;;;;;;18.70;42.50;;;;;;6221035;22;20241;-90
2022/07/06 00:48:40;;;;;;;;;;;18.60;42.60;;;;;;6222464;23;19912;-93
2022/07/06 00:51:05;;;;;;;;;;;18.60;42.70;;;;;;6222850;23;19911;-93
2022/07/06 00:53:31;;;;;;;;;;;18.60;42.80;;;;;;6223470;23;19912;-93
2022/07/06 00:55:56;;;;;;;;;;;18.60;43.00;;;;;;6250089;23;19904;-91
2022/07/06 00:58:22;;;;;;;;;;;18.70;43.10;;;;;;6222982;22;19954;-91
2022/07/06 01:00:47;;;;;;;;;;;18.60;43.20;;;;;;6232523;22;20255;-91
2022/07/06 01:03:13;;;;;;;;;;;18.60;43.20;;;;;;6252588;22;19915;-91
2022/07/06 01:05:38;;;;;;;;;;;18.50;43.20;;;;;;6253460;22;19981;-91
2022/07/06 01:08:04;;;;;;;;;;;18.50;43.30;;;;;;6254991;22;19961;-91
2022/07/06 01:10:30;;;;;;;;;;;18.50;43.50;;;;;;6253627;22;19965;-92
2022/07/06 01:12:56;;;;;;;;;;;18.50;43.70;;;;;;6253566;22;19911;-90
2022/07/06 01:15:22;;;;;;;;;;;18.40;43.60;;;;;;6253592;22;19907;-92
2022/07/06 01:17:48;;;;;;;;;;;18.50;43.70;;;;;;6252294;22;19908;-90
2022/07/06 01:20:15;;;;;;;;;;;18.40;44.00;;;;;;6251241;22;19917;-91
2022/07/06 01:22:41;;;;;;;;;;;18.40;44.00;;;;;;6280158;22;19911;-93
2022/07/06 01:25:07;;;;;;;;;;;18.30;44.00;;;;;;6281161;22;20714;-93
2022/07/06 01:27:39;;;;;;;;;;;18.30;44.10;;;;;;6252737;22;19911;-89
2022/07/06 01:30:06;;;;;;;;;;;18.30;44.10;;;;;;6279108;22;19961;-89
2022/07/06 01:32:31;;;;;;;;;;;18.30;44.30;;;;;;6262734;22;19922;-89
2022/07/06 01:34:57;;;;;;;;;;;18.20;44.30;;;;;;6262011;22;19907;-89
2022/07/06 01:37:22;;;;;;;;;;;18.10;44.20;;;;;;6253525;22;19955;-91
2022/07/06 01:39:48;;;;;;;;;;;18.10;44.20;;;;;;6253035;22;19907;-88
2022/07/06 01:42:13;;;;;;;;;;;18.10;44.20;;;;;;6279592;22;19915;-88
2022/07/06 01:44:45;;;;;;;;;;;18.10;44.20;;;;;;6251918;22;19942;-89
2022/07/06 01:47:10;;;;;;;;;;;18.10;44.30;;;;;;6251981;22;19933;-89
2022/07/06 01:49:36;;;;;;;;;;;18.20;44.30;;;;;;6253262;22;19946;-89
2022/07/06 01:52:02;;;;;;;;;;;18.20;44.50;;;;;;6279092;22;20002;-88
2022/07/06 01:54:27;;;;;;;;;;;18.30;44.50;;;;;;6252310;22;20283;-89
2022/07/06 01:56:53;;;;;;;;;;;18.40;44.70;;;;;;6252648;22;19934;-89
2022/07/06 01:59:18;;;;;;;;;;;18.50;44.60;;;;;;6280197;22;19934;-88
2022/07/06 02:01:44;;;;;;;;;;;18.60;44.60;;;;;;6279647;22;19915;-89
2022/07/06 02:04:09;;;;;;;;;;;18.70;44.60;;;;;;6254037;22;19917;-89
2022/07/06 02:06:35;;;;;;;;;;;18.70;44.50;;;;;;6279954;22;19982;-90
2022/07/06 02:09:00;;;;;;;;;;;18.80;44.60;;;;;;6251158;22;19907;-89
2022/07/06 02:11:46;;;;;;;;;;;18.90;44.80;;;;;;6253082;22;19915;-89
2022/07/06 02:14:11;;;;;;;;;;;19.00;44.70;;;;;;6250798;22;19907;-90
2022/07/06 02:16:37;;;;;;;;;;;19.00;44.70;;;;;;6250287;22;19913;-89
2022/07/06 02:19:02;;;;;;;;;;;19.10;44.70;;;;;;6279174;22;19907;-90
2022/07/06 02:21:28;;;;;;;;;;;19.10;44.70;;;;;;6252881;22;19895;-90
2022/07/06 02:23:53;;;;;;;;;;;19.10;44.60;;;;;;6253137;22;20000;-90
2022/07/06 02:26:19;;;;;;;;;;;19.20;44.70;;;;;;6251634;22;19918;-90
2022/07/06 02:28:46;;;;;;;;;;;19.20;44.70;;;;;;6251832;22;19903;-90
2022/07/06 02:31:13;;;;;;;;;;;19.20;44.80;;;;;;6252130;22;19962;-89
2022/07/06 02:33:38;;;;;;;;;;;19.30;44.80;;;;;;6280413;22;19915;-90
2022/07/06 02:36:04;;;;;;;;;;;19.30;44.70;;;;;;6280487;22;20398;-91
2022/07/06 02:38:29;;;;;;;;;;;19.30;44.80;;;;;;6251876;22;19903;-91
2022/07/06 02:40:55;;;;;;;;;;;19.40;45.00;;;;;;6252685;22;19911;-91
2022/07/06 02:43:20;;;;;;;;;;;19.40;45.10;;;;;;6252677;22;19942;-90
2022/07/06 02:45:46;;;;;;;;;;;19.40;45.10;;;;;;6252912;22;19938;-91
2022/07/06 02:48:14;;;;;;;;;;;19.40;45.00;;;;;;6279123;22;19911;-91
2022/07/06 02:50:39;;;;;;;;;;;19.50;45.00;;;;;;6279158;22;19907;-91
2022/07/06 02:53:05;;;;;;;;;;;19.40;45.20;;;;;;6278814;22;19914;-91
2022/07/06 02:55:30;;;;;;;;;;;19.50;45.30;;;;;;6250837;22;20391;-91
2022/07/06 02:57:56;;;;;;;;;;;19.50;45.50;;;;;;6252680;22;19907;-91
2022/07/06 03:00:21;;;;;;;;;;;19.50;45.80;;;;;;6251732;22;19986;-90
2022/07/06 03:02:47;;;;;;;;;;;19.50;45.60;;;;;;6252062;22;19907;-89
2022/07/06 03:05:12;;;;;;;;;;;19.50;45.70;;;;;;6278588;22;19982;-91
2022/07/06 03:07:43;;;;;;;;;;;19.50;45.70;;;;;;6251324;22;19907;-90
2022/07/06 03:10:09;;;;;;;;;;;19.60;45.70;;;;;;6251010;22;19918;-89
2022/07/06 03:12:34;;;;;;;;;;;19.60;45.70;;;;;;6250992;22;19994;-90
2022/07/06 03:15:00;;;;;;;;;;;19.60;45.90;;;;;;6252861;22;19907;-91
2022/07/06 03:17:29;;;;;;;;;;;19.60;46.00;;;;;;6279141;22;20235;-91
2022/07/06 03:19:59;;;;;;;;;;;19.60;46.00;;;;;;6252155;22;19981;-90
2022/07/06 03:22:25;;;;;;;;;;;19.60;45.90;;;;;;6252630;22;19938;-91
2022/07/06 03:24:50;;;;;;;;;;;19.50;46.10;;;;;;6251884;22;19907;-90
2022/07/06 03:27:16;;;;;;;;;;;19.40;46.10;;;;;;6251947;22;19972;-89
2022/07/06 03:29:41;;;;;;;;;;;19.30;46.10;;;;;;6250750;22;19911;-88
2022/07/06 03:32:18;;;;;;;;;;;19.20;46.00;;;;;;6276532;22;19911;-89
2022/07/06 03:34:44;;;;;;;;;;;19.10;46.00;;;;;;6250172;22;19949;-89
2022/07/06 03:37:09;;;;;;;;;;;19.00;46.10;;;;;;6277922;22;20391;-90
2022/07/06 03:39:35;;;;;;;;;;;18.80;46.00;;;;;;6251300;22;19982;-90
2022/07/06 03:42:00;;;;;;;;;;;18.70;46.10;;;;;;6278065;22;19913;-90
2022/07/06 03:44:26;;;;;;;;;;;18.70;46.10;;;;;;6251404;22;19915;-90
2022/07/06 03:46:54;;;;;;;;;;;18.60;46.40;;;;;;6279713;22;19907;-89
2022/07/06 03:49:19;;;;;;;;;;;18.50;46.30;;;;;;6280091;22;20243;-90
2022/07/06 03:51:45;;;;;;;;;;;18.40;46.30;;;;;;6279074;22;19957;-90
2022/07/06 03:54:10;;;;;;;;;;;18.40;46.40;;;;;;6279105;22;19914;-90
2022/07/06 03:56:38;;;;;;;;;;;18.30;46.50;;;;;;6252244;22;19911;-90
2022/07/06 03:59:07;;;;;;;;;;;18.30;46.50;;;;;;6277610;22;20025;-90
2022/07/06 04:01:34;;;;;;;;;;;18.30;46.70;;;;;;6278792;22;19903;-90
2022/07/06 04:04:00;;;;;;;;;;;18.30;46.80;;;;;;6277550;22;19907;-88
2022/07/06 04:06:26;;;;;;;;;;;18.30;46.90;;;;;;6248921;22;19930;-89
2022/07/06 04:08:51;;;;;;;;;;;18.30;47.10;;;;;;6277241;22;20220;-90
2022/07/06 04:11:17;;;;;;;;;;;18.40;47.60;;;;;;6250167;22;19997;-89
2022/07/06 04:13:42;;;;;;;;;;;18.70;48.50;;;;;;6277494;22;19915;-90
2022/07/06 04:16:08;;;;;;;;;;;19.10;49.10;;;;;;6251589;22;19911;-90
2022/07/06 04:18:34;;;;;;;;;;;19.60;49.40;;;;;;6251359;22;19907;-89
2022/07/06 04:20:59;;;;;;;;;;;20.10;49.20;;;;;;6278430;22;19907;-89
2022/07/06 04:23:25;;;;;;;;;;;20.60;49.00;;;;;;6251264;22;19934;-89
2022/07/06 04:25:50;;;;;;;;;;;21.10;48.60;;;;;;6278615;22;19907;-89
2022/07/06 04:28:16;;;;;;;;;;;21.70;48.10;;;;;;6278525;22;19911;-88
2022/07/06 04:30:41;;;;;;;;;;;22.10;47.40;;;;;;6251537;22;19914;-89
2022/07/06 04:33:17;;;;;;;;;;;22.70;46.90;;;;;;6277382;22;20231;-89
2022/07/06 04:35:43;;;;;;;;;;;23.10;46.40;;;;;;6277271;22;19915;-88
2022/07/06 04:38:08;;;;;;;;;;;23.60;45.80;;;;;;6249576;22;19953;-89
2022/07/06 04:40:34;;;;;;;;;;;24.20;45.20;;;;;;6251275;22;19937;-89
2022/07/06 04:42:59;;;;;;;;;;;24.60;44.50;;;;;;6251324;22;19911;-89
2022/07/06 04:45:25;;;;;;;;;;;25.10;43.80;;;;;;6249950;22;19911;-89
2022/07/06 04:47:50;;;;;;;;;;;25.60;43.00;;;;;;6277638;22;19982;-89
2022/07/06 04:50:16;;;;;;;;;;;26.10;42.20;;;;;;6251331;22;19914;-89
2022/07/06 04:52:41;;;;;;;;;;;26.50;41.40;;;;;;6278155;22;19950;-90
2022/07/06 04:55:08;;;;;;;;;;;27.00;40.30;;;;;;6250345;22;19911;-89
2022/07/06 04:57:34;;;;;;;;;;;27.40;39.80;;;;;;6276949;22;19908;-89
2022/07/06 04:59:59;;;;;;;;;;;27.80;39.20;;;;;;6249926;22;19947;-89
2022/07/06 05:02:25;;;;;;;;;;;28.20;38.40;;;;;;6249885;22;19918;-89
2022/07/06 05:04:50;;;;;;;;;;;28.50;37.80;;;;;;6251649;22;19904;-90
2022/07/06 05:07:16;;;;;;;;;;;28.90;37.20;;;;;;6275983;22;19914;-89
2022/07/06 05:09:41;;;;;;;;;;;29.30;36.50;;;;;;6277036;22;19976;-89
2022/07/06 05:12:07;;;;;;;;;;;29.60;35.20;;;;;;6250469;22;19915;-91
2022/07/06 05:14:33;;;;;;;;;;;29.70;34.10;;;;;;6252568;22;19922;-91
2022/07/06 05:16:58;;;;;;;;;;;29.50;32.50;;;;;;6251685;22;19907;-92
2022/07/06 05:19:24;;;;;;;;;;;29.20;32.40;;;;;;6251571;22;19935;-90
2022/07/06 05:21:49;;;;;;;;;;;29.00;32.70;;;;;;6277779;22;19907;-90
2022/07/06 05:24:15;;;;;;;;;;;28.70;32.80;;;;;;6279140;22;19903;-90
2022/07/06 05:26:41;;;;;;;;;;;28.50;32.80;;;;;;6252154;22;19938;-91
2022/07/06 05:29:06;;;;;;;;;;;28.30;33.00;;;;;;6280003;22;19938;-91
2022/07/06 05:31:35;;;;;;;;;;;28.20;33.00;;;;;;6252189;22;19912;-89
2022/07/06 05:34:01;;;;;;;;;;;27.90;33.10;;;;;;6252697;22;19912;-89
2022/07/06 05:36:26;;;;;;;;;;;27.80;33.30;;;;;;6277902;22;19930;-88
2022/07/06 05:38:51;;;;;;;;;;;27.60;33.50;;;;;;6277586;22;19907;-88
2022/07/06 05:41:17;;;;;;;;;;;27.50;33.70;;;;;;6277711;22;19911;-88
2022/07/06 05:43:42;;;;;;;;;;;27.40;33.80;;;;;;6250981;22;19942;-88
2022/07/06 05:46:08;;;;;;;;;;;27.40;33.90;;;;;;6278203;22;19912;-90
2022/07/06 05:51:18;;;;;;;;;;;27.20;34.20;;;;;;6278085;22;20256;-88
2022/07/06 05:53:43;;;;;;;;;;;27.20;34.40;;;;;;6251212;22;19908;-88
2022/07/06 05:56:09;;;;;;;;;;;27.20;34.70;;;;;;6278354;22;19953;-89
2022/07/06 05:58:34;;;;;;;;;;;27.30;34.90;;;;;;6252095;22;19911;-88
2022/07/06 06:01:00;;;;;;;;;;;27.50;34.80;;;;;;6250876;22;19933;-91
2022/07/06 06:03:25;;;;;;;;;;;27.60;34.80;;;;;;6250149;22;19917;-91
2022/07/06 06:05:50;;;;;;;;;;;27.70;34.60;;;;;;6250406;22;20308;-91
2022/07/06 06:08:16;;;;;;;;;;;27.90;34.50;;;;;;6278204;22;19907;-90
2022/07/06 06:10:41;;;;;;;;;;;28.10;34.20;;;;;;6275782;22;19908;-90
2022/07/06 06:13:10;;;;;;;;;;;28.30;34.10;;;;;;6248334;22;19963;-89
2022/07/06 06:15:35;;;;;;;;;;;28.30;33.50;;;;;;6276928;22;19956;-89
2022/07/06 06:18:01;;;;;;;;;;;28.40;33.20;;;;;;6248569;22;19935;-89
2022/07/06 06:20:27;;;;;;;;;;;28.50;33.10;;;;;;6274187;22;20000;-90
2022/07/06 06:22:53;;;;;;;;;;;28.50;32.90;;;;;;6246512;22;19931;-89
2022/07/06 06:25:20;;;;;;;;;;;28.50;32.70;;;;;;6246448;22;19976;-88
2022/07/06 06:27:46;;;;;;;;;;;28.60;32.60;;;;;;6274460;22;20263;-88
2022/07/06 06:30:12;;;;;;;;;;;28.60;32.50;;;;;;6247040;22;19911;-89
2022/07/06 06:32:37;;;;;;;;;;;28.70;32.40;;;;;;6247006;22;19951;-89
2022/07/06 06:35:03;;;;;;;;;;;28.70;32.20;;;;;;6275576;22;19912;-89
2022/07/06 06:37:29;;;;;;;;;;;28.70;32.20;;;;;;6246417;22;19914;-89
2022/07/06 06:39:54;;;;;;;;;;;28.70;32.20;;;;;;6272140;22;19907;-89
2022/07/06 06:42:20;;;;;;;;;;;28.70;32.20;;;;;;6271781;22;19961;-89
2022/07/06 06:44:45;;;;;;;;;;;28.70;32.30;;;;;;6246520;22;19926;-89
2022/07/06 06:47:11;;;;;;;;;;;28.70;32.10;;;;;;6244238;22;19911;-88
2022/07/06 06:49:36;;;;;;;;;;;28.60;31.90;;;;;;6246168;22;19911;-89
2022/07/06 06:52:02;;;;;;;;;;;28.60;31.80;;;;;;6273545;22;20330;-90
2022/07/06 06:54:27;;;;;;;;;;;28.60;31.90;;;;;;6274081;22;19922;-89
2022/07/06 06:56:52;;;;;;;;;;;28.60;31.80;;;;;;6277857;22;19903;-89
2022/07/06 06:59:18;;;;;;;;;;;28.60;31.70;;;;;;6254373;22;19911;-89
2022/07/06 07:01:44;;;;;;;;;;;28.60;31.80;;;;;;6248443;22;19922;-89
2022/07/06 07:04:09;;;;;;;;;;;28.60;31.80;;;;;;6247678;22;19907;-90
2022/07/06 07:06:35;;;;;;;;;;;28.50;31.70;;;;;;6247225;22;19922;-90
2022/07/06 07:09:00;;;;;;;;;;;28.50;31.60;;;;;;6275233;22;19918;-90
2022/07/06 07:11:26;;;;;;;;;;;28.50;31.60;;;;;;6248215;22;19919;-89
2022/07/06 07:13:51;;;;;;;;;;;28.40;31.60;;;;;;6247519;22;19911;-89
2022/07/06 07:16:17;;;;;;;;;;;28.50;31.70;;;;;;6247430;22;19965;-89
2022/07/06 07:18:42;;;;;;;;;;;28.40;31.70;;;;;;6250660;22;19908;-91
2022/07/06 07:21:08;;;;;;;;;;;28.40;31.60;;;;;;6273860;22;19957;-90
2022/07/06 07:23:33;;;;;;;;;;;28.40;31.70;;;;;;6251290;22;19911;-91
2022/07/06 07:25:59;;;;;;;;;;;28.40;31.70;;;;;;6276106;22;19903;-91
2022/07/06 07:28:24;;;;;;;;;;;28.40;31.70;;;;;;6247095;22;19942;-91
2022/07/06 07:30:50;;;;;;;;;;;28.40;31.80;;;;;;6247870;22;19907;-91
2022/07/06 07:33:16;;;;;;;;;;;28.40;31.80;;;;;;6248302;22;20555;-91
2022/07/06 07:35:41;;;;;;;;;;;28.50;31.70;;;;;;6275220;22;19915;-91
2022/07/06 07:38:07;;;;;;;;;;;28.70;31.60;;;;;;6248108;22;19913;-91
2022/07/06 07:40:35;;;;;;;;;;;28.80;31.50;;;;;;6274853;22;19994;-90
2022/07/06 07:43:01;;;;;;;;;;;29.00;31.40;;;;;;6247858;22;19915;-90
2022/07/06 07:45:26;;;;;;;;;;;29.20;31.30;;;;;;6247806;22;20274;-90
2022/07/06 07:47:51;;;;;;;;;;;29.40;30.70;;;;;;6247670;22;19939;-91
2022/07/06 07:50:18;;;;;;;;;;;29.40;30.40;;;;;;6276413;22;20037;-90
2022/07/06 07:52:43;;;;;;;;;;;29.70;30.60;;;;;;6275367;22;19927;-90
2022/07/06 07:55:09;;;;;;;;;;;29.90;30.40;;;;;;6249859;22;19907;-90
2022/07/06 07:57:34;;;;;;;;;;;30.20;30.30;;;;;;6250025;22;19911;-91
2022/07/06 08:00:00;;;;;;;;;;;30.40;29.80;;;;;;6247450;22;20327;-91
2022/07/06 08:02:25;;;;;;;;;;;30.60;29.60;;;;;;6276407;22;20487;-91
2022/07/06 08:04:51;;;;;;;;;;;30.70;29.20;;;;;;6248782;22;19908;-91
2022/07/06 08:07:16;;;;;;;;;;;30.80;29.00;;;;;;6248493;22;19917;-90
2022/07/06 08:09:42;;;;;;;;;;;30.80;28.80;;;;;;6276059;22;20239;-91
2022/07/06 08:12:09;;;;;;;;;;;30.90;28.80;;;;;;6249158;22;19915;-90
2022/07/06 08:14:37;;;;;;;;;;;31.00;28.60;;;;;;6250554;22;20169;-92
2022/07/06 08:17:02;;;;;;;;;;;31.00;28.50;;;;;;6249237;22;20468;-93
2022/07/06 08:19:30;;;;;;;;;;;31.10;28.40;;;;;;6247572;22;19923;-91
2022/07/06 08:21:56;;;;;;;;;;;31.20;28.10;;;;;;6246485;22;19907;-90
2022/07/06 08:24:21;;;;;;;;;;;31.20;27.90;;;;;;6246687;22;19931;-90
2022/07/06 08:26:46;;;;;;;;;;;31.10;27.80;;;;;;6276250;22;19968;-91
2022/07/06 08:29:12;;;;;;;;;;;30.90;27.70;;;;;;6274020;22;19965;-91
2022/07/06 08:31:37;;;;;;;;;;;30.80;27.60;;;;;;6275921;22;19915;-91
2022/07/06 08:34:03;;;;;;;;;;;30.70;27.80;;;;;;6247142;22;19918;-91
2022/07/06 08:36:29;;;;;;;;;;;30.50;27.90;;;;;;6248524;22;19989;-92
2022/07/06 08:38:55;;;;;;;;;;;30.40;27.90;;;;;;6247041;22;19918;-92
2022/07/06 08:41:25;;;;;;;;;;;30.40;28.10;;;;;;6274413;22;19911;-91
2022/07/06 08:43:51;;;;;;;;;;;30.30;28.20;;;;;;6246611;22;20326;-90
2022/07/06 08:46:16;;;;;;;;;;;30.30;28.40;;;;;;6275794;22;19915;-91
2022/07/06 08:48:42;;;;;;;;;;;30.40;28.40;;;;;;6249353;22;20586;-91
2022/07/06 08:51:07;;;;;;;;;;;30.50;28.60;;;;;;6275781;22;19919;-92
2022/07/06 08:53:36;;;;;;;;;;;30.80;28.60;;;;;;6276374;22;19926;-91
2022/07/06 08:56:01;;;;;;;;;;;31.20;28.40;;;;;;6248584;22;19903;-92
2022/07/06 08:58:31;;;;;;;;;;;31.50;28.10;;;;;;6276836;22;19915;-91
2022/07/06 09:00:57;;;;;;;;;;;31.80;27.80;;;;;;6247816;22;19915;-88
2022/07/06 09:03:23;;;;;;;;;;;32.20;27.60;;;;;;6274408;22;19966;-89
2022/07/06 09:05:50;;;;;;;;;;;32.50;27.30;;;;;;6275188;22;20033;-88
2022/07/06 09:08:15;;;;;;;;;;;33.00;26.80;;;;;;6248935;22;20416;-89
2022/07/06 09:10:41;;;;;;;;;;;33.40;25.60;;;;;;6247915;22;19931;-89
2022/07/06 09:13:08;;;;;;;;;;;33.60;25.50;;;;;;6247940;22;20328;-89
2022/07/06 09:15:34;;;;;;;;;;;33.80;24.90;;;;;;6273196;22;19986;-89
2022/07/06 09:18:00;;;;;;;;;;;33.70;24.40;;;;;;6273980;22;19930;-89
2022/07/06 09:20:26;;;;;;;;;;;33.50;23.80;;;;;;6246868;22;19911;-88
2022/07/06 09:22:56;;;;;;;;;;;33.20;23.60;;;;;;6274312;22;19918;-90
2022/07/06 09:25:23;;;;;;;;;;;32.90;24.00;;;;;;6220978;22;19921;-90
2022/07/06 09:27:54;;;;;;;;;;;32.70;24.30;;;;;;6246575;22;20369;-90
2022/07/06 09:30:20;;;;;;;;;;;32.50;24.50;;;;;;6273560;22;19942;-90
2022/07/06 09:32:48;;;;;;;;;;;32.30;24.60;;;;;;6274266;22;19923;-91
2022/07/06 09:35:21;;;;;;;;;;;32.20;24.70;;;;;;6274542;22;20014;-89
2022/07/06 09:37:47;;;;;;;;;;;32.10;24.90;;;;;;6246885;22;19986;-88
2022/07/06 09:40:17;;;;;;;;;;;32.00;25.00;;;;;;6246641;22;19915;-88
2022/07/06 09:42:43;;;;;;;;;;;31.90;25.00;;;;;;6247218;22;19946;-89
2022/07/06 09:45:08;;;;;;;;;;;31.80;25.00;;;;;;6273602;22;19916;-89
2022/07/06 09:47:34;;;;;;;;;;;31.60;25.20;;;;;;6247273;22;19908;-89
2022/07/06 09:50:00;;;;;;;;;;;31.40;25.40;;;;;;6273868;22;19966;-89
2022/07/06 09:52:25;;;;;;;;;;;31.20;25.60;;;;;;6246626;22;20371;-90
2022/07/06 09:54:51;;;;;;;;;;;31.00;25.70;;;;;;6273886;22;19915;-88
2022/07/06 09:57:16;;;;;;;;;;;30.80;25.60;;;;;;6246797;22;19907;-89
2022/07/06 09:59:42;;;;;;;;;;;30.70;25.80;;;;;;6247156;22;19922;-89
2022/07/06 10:02:08;;;;;;;;;;;30.40;25.80;;;;;;6248022;22;19993;-89
2022/07/06 10:04:33;;;;;;;;;;;30.20;26.00;;;;;;6273993;22;20240;-89
2022/07/06 10:07:00;;;;;;;;;;;30.10;26.20;;;;;;6247079;22;20208;-90
2022/07/06 10:09:26;;;;;;;;;;;30.00;26.40;;;;;;6248103;22;19941;-90
2022/07/06 10:12:01;;;;;;;;;;;29.90;26.50;;;;;;6248271;22;20012;-91
2022/07/06 10:14:29;;;;;;;;;;;29.80;26.60;;;;;;6248550;22;19994;-89
2022/07/06 10:16:58;;;;;;;;;;;29.70;26.80;;;;;;6274466;22;19912;-89
2022/07/06 10:19:24;;;;;;;;;;;29.60;26.80;;;;;;6274770;22;19907;-88
2022/07/06 10:21:51;;;;;;;;;;;29.50;27.00;;;;;;6274272;22;20009;-89
2022/07/06 10:24:18;;;;;;;;;;;29.50;27.20;;;;;;6247057;22;19982;-88
2022/07/06 10:26:45;;;;;;;;;;;29.50;27.30;;;;;;6247125;22;20321;-89
2022/07/06 10:29:10;;;;;;;;;;;29.60;27.40;;;;;;6247749;22;19903;-89
2022/07/06 10:31:39;;;;;;;;;;;29.80;27.40;;;;;;6248087;22;19911;-90
2022/07/06 10:34:06;;;;;;;;;;;29.80;27.20;;;;;;6249035;22;19915;-91
2022/07/06 10:36:41;;;;;;;;;;;30.00;27.10;;;;;;6274484;22;19911;-90
2022/07/06 10:41:52;;;;;;;;;;;30.50;26.90;;;;;;6274841;22;19965;-89
2022/07/06 10:44:19;;;;;;;;;;;30.80;26.80;;;;;;6246649;22;20350;-88
2022/07/06 10:46:55;;;;;;;;;;;31.30;26.70;;;;;;6273319;22;19907;-89
2022/07/06 10:49:21;;;;;;;;;;;31.80;26.20;;;;;;6274001;22;19930;-89
2022/07/06 10:51:47;;;;;;;;;;;32.30;25.50;;;;;;6274783;22;19915;-90
2022/07/06 10:54:12;;;;;;;;;;;32.60;25.10;;;;;;6247481;22;20190;-90
2022/07/06 10:56:38;;;;;;;;;;;32.80;25.00;;;;;;6274594;22;19918;-93
2022/07/06 10:59:13;;;;;;;;;;;33.10;24.50;;;;;;6247206;22;19916;-91
2022/07/06 11:01:39;;;;;;;;;;;33.30;24.20;;;;;;6274320;22;20336;-90
2022/07/06 11:04:05;;;;;;;;;;;33.70;23.90;;;;;;6248209;22;19969;-88
2022/07/06 11:06:38;;;;;;;;;;;34.20;23.60;;;;;;6248466;22;19907;-88
2022/07/06 11:09:09;;;;;;;;;;;34.90;23.30;;;;;;6248047;22;19907;-88
2022/07/06 11:11:35;;;;;;;;;;;35.70;22.70;;;;;;6249854;22;20686;-87
2022/07/06 11:14:04;;;;;;;;;;;36.00;22.10;;;;;;6251200;22;19927;-87
2022/07/06 11:16:34;;;;;;;;;;;35.90;21.80;;;;;;6251296;22;19990;-87
2022/07/06 11:19:09;;;;;;;;;;;35.80;21.80;;;;;;6275317;22;20217;-87
2022/07/06 11:21:44;;;;;;;;;;;35.70;21.70;;;;;;6246996;22;19939;-87
2022/07/06 11:24:11;;;;;;;;;;;35.50;21.50;;;;;;6274956;22;19907;-87
2022/07/06 11:26:37;;;;;;;;;;;35.20;21.00;;;;;;6221607;22;19915;-88
2022/07/06 11:29:04;;;;;;;;;;;34.80;21.00;;;;;;6275673;22;20334;-88
2022/07/06 11:31:30;;;;;;;;;;;34.40;21.40;;;;;;6246915;22;19911;-88
2022/07/06 11:33:55;;;;;;;;;;;34.00;21.50;;;;;;6246435;22;19914;-88
2022/07/06 11:36:21;;;;;;;;;;;33.70;21.90;;;;;;6273786;22;19911;-87
2022/07/06 11:38:48;;;;;;;;;;;33.40;22.20;;;;;;6274469;22;19922;-88
2022/07/06 11:41:16;;;;;;;;;;;33.20;22.50;;;;;;6246681;22;20339;-88
2022/07/06 11:43:44;;;;;;;;;;;32.90;22.70;;;;;;6248869;22;19986;-88
2022/07/06 11:46:25;;;;;;;;;;;32.80;22.90;;;;;;6274952;22;20351;-88
2022/07/06 11:49:01;;;;;;;;;;;32.50;22.90;;;;;;6246984;22;20316;-87
2022/07/06 11:51:28;;;;;;;;;;;32.30;23.20;;;;;;6273982;22;19911;-87
2022/07/06 11:53:54;;;;;;;;;;;32.20;23.50;;;;;;6246478;22;19915;-87
2022/07/06 11:56:22;;;;;;;;;;;32.20;23.80;;;;;;6273928;22;20311;-88
2022/07/06 11:58:51;;;;;;;;;;;32.20;23.90;;;;;;6273516;22;20373;-87
2022/07/06 12:01:17;;;;;;;;;;;32.30;23.90;;;;;;6247290;22;19911;-86
2022/07/06 12:03:45;;;;;;;;;;;32.70;23.70;;;;;;6274377;22;19913;-86
2022/07/06 12:06:17;;;;;;;;;;;33.00;23.50;;;;;;6246554;22;20277;-87
2022/07/06 12:08:50;;;;;;;;;;;33.10;23.10;;;;;;6246935;22;20221;-86
2022/07/06 12:11:20;;;;;;;;;;;33.20;23.10;;;;;;6245928;22;19915;-88
2022/07/06 12:13:45;;;;;;;;;;;33.30;23.10;;;;;;6247245;22;19912;-88
2022/07/06 12:16:12;;;;;;;;;;;33.40;23.10;;;;;;6246845;22;19907;-88
2022/07/06 12:18:38;;;;;;;;;;;33.70;22.90;;;;;;6274678;22;19934;-88
2022/07/06 12:21:04;;;;;;;;;;;33.90;22.70;;;;;;6272711;22;19922;-87
2022/07/06 12:23:38;;;;;;;;;;;34.20;22.50;;;;;;6246036;22;19978;-87
2022/07/06 12:26:07;;;;;;;;;;;34.40;22.10;;;;;;6273768;22;19915;-87
2022/07/06 12:28:33;;;;;;;;;;;34.60;21.70;;;;;;6246187;22;19914;-86
2022/07/06 12:34:21;;;;;;;;;;;35.80;21.10;;;;;;6273019;22;19961;-87
2022/07/06 12:36:47;;;;;;;;;;;36.80;20.50;;;;;;6197270;23;19942;-89
2022/07/06 12:40:29;;;;;;;;;;;37.50;19.30;;;;;;6211011;23;19912;-89
2022/07/06 12:42:24;;;;;;;;;;;37.90;19.30;;;;;;6201464;23;19947;-88
2022/07/06 12:44:50;;;;;;;;;;;38.80;18.70;;;;;;6186173;23;19904;-89
2022/07/06 12:47:23;;;;;;;;;;;39.10;18.40;;;;;;6186843;23;19908;-89
2022/07/06 12:50:03;;;;;;;;;;;38.80;18.10;;;;;;6186468;23;19919;-89
2022/07/06 12:52:28;;;;;;;;;;;38.30;18.50;;;;;;6185440;23;19971;-87
2022/07/06 12:54:54;;;;;;;;;;;38.00;18.50;;;;;;6182754;23;19912;-87
2022/07/06 12:57:23;;;;;;;;;;;37.70;18.60;;;;;;6182967;23;19915;-88
2022/07/06 12:59:55;;;;;;;;;;;37.30;18.70;;;;;;6182801;23;19915;-88
2022/07/06 13:02:26;;;;;;;;;;;37.10;18.60;;;;;;6239520;22;20185;-88
2022/07/06 13:04:56;;;;;;;;;;;36.70;18.70;;;;;;6245795;22;19911;-86
2022/07/06 13:07:22;;;;;;;;;;;36.40;18.90;;;;;;6245738;22;19934;-88
2022/07/06 13:09:47;;;;;;;;;;;36.00;19.10;;;;;;6246740;22;19922;-88
2022/07/06 13:12:13;;;;;;;;;;;35.90;19.40;;;;;;6273645;22;19965;-87
2022/07/06 13:14:38;;;;;;;;;;;36.30;19.20;;;;;;6246506;22;19997;-87
2022/07/06 13:17:04;;;;;;;;;;;36.20;19.50;;;;;;6246375;22;19949;-87
2022/07/06 13:19:30;;;;;;;;;;;36.00;19.60;;;;;;6245626;22;19919;-89
2022/07/06 13:21:57;;;;;;;;;;;35.90;19.60;;;;;;6246365;22;19904;-88
2022/07/06 13:24:23;;;;;;;;;;;36.30;19.50;;;;;;6246683;22;19965;-88
2022/07/06 13:26:49;;;;;;;;;;;37.00;19.20;;;;;;6246271;22;19942;-88
2022/07/06 13:29:14;;;;;;;;;;;37.70;18.60;;;;;;6245921;22;19918;-88
2022/07/06 13:31:42;;;;;;;;;;;38.30;17.80;;;;;;6244949;22;19919;-87
2022/07/06 13:34:08;;;;;;;;;;;37.90;17.70;;;;;;6272354;22;19915;-88
2022/07/06 13:36:34;;;;;;;;;;;37.80;17.80;;;;;;6247043;22;19914;-88
2022/07/06 13:38:59;;;;;;;;;;;37.80;17.80;;;;;;6274261;22;19903;-88
2022/07/06 13:41:25;;;;;;;;;;;38.10;17.80;;;;;;6273217;22;19915;-88
2022/07/06 13:43:50;;;;;;;;;;;38.10;17.40;;;;;;6274598;22;20319;-88
2022/07/06 13:46:16;;;;;;;;;;;37.50;17.60;;;;;;6273951;22;19911;-88
2022/07/06 13:48:42;;;;;;;;;;;36.80;17.60;;;;;;6246447;22;20224;-88
2022/07/06 13:51:16;;;;;;;;;;;36.30;18.00;;;;;;6246755;22;19989;-88
2022/07/06 13:53:42;;;;;;;;;;;36.60;18.20;;;;;;6246734;22;19923;-88
2022/07/06 13:56:08;;;;;;;;;;;37.20;18.00;;;;;;6246121;22;19907;-88
2022/07/06 13:58:33;;;;;;;;;;;37.40;17.60;;;;;;6275056;22;19986;-87
2022/07/06 14:03:37;;;;;;;;;;;36.70;17.30;;;;;;6260532;22;20269;-88
2022/07/06 14:06:03;;;;;;;;;;;36.20;17.70;;;;;;6247057;22;19947;-87
2022/07/06 14:08:29;;;;;;;;;;;35.80;18.20;;;;;;6246648;22;19954;-87
2022/07/06 14:10:56;;;;;;;;;;;35.40;18.50;;;;;;6273543;22;19915;-88
2022/07/06 14:13:21;;;;;;;;;;;35.20;18.80;;;;;;6273556;22;19911;-88
2022/07/06 14:15:50;;;;;;;;;;;35.00;19.00;;;;;;6274113;22;19961;-87
2022/07/06 14:21:00;;;;;;;;;;;35.30;18.90;;;;;;6263774;22;19961;-88
2022/07/06 14:29:29;;;;;;;;;;;35.00;19.00;;;;;;6169323;23;19916;-88
2022/07/06 14:31:54;;;;;;;;;;;35.20;19.00;;;;;;6181669;23;19916;-87
2022/07/06 14:34:20;;;;;;;;;;;35.20;18.80;;;;;;6205816;22;19965;-87